sensor_id;sensor_type;location;lat;lon;timestamp;temperature;humidity
2212;DHT22;48849;48.758;9.158;2024-01-07T00:00:23;10.00;99.90
2212;DHT22;48849;48.758;9.158;2024-01-07T00:02:50;9.90;99.90
2212;DHT22;48849;48.758;9.158;2024-01-07T00:05:18;10.00;99.90
2212;DHT22;48849;48.758;9.158;2024-01-07T00:07:45;11.50;99.90
2212;DHT22;48849;48.758;9.158;2024-01-07T00:10:13;10.20;99.90
2212;DHT22;48849;48.758;9.158;2024-01-07T00:12:40;9.90;99.90
2212;DHT22;48849;48.758;9.158;2024-01-07T00:15:07;10.40;99.90
2212;DHT22;48849;48.758;9.158;2024-01-07T00:17:34;9.90;99.90
2212;DHT22;48849;48.758;9.158;2024-01-07T00:20:01;9.90;99.90
2212;DHT22;48849;48.758;9.158;2024-01-07T00:22:29;9.90;99.90
2212;DHT22;48849;48.758;9.158;2024-01-07T00:24:56;9.90;99.90
2212;DHT22;48849;48.758;9.158;2024-01-07T00:27:23;10.00;99.90
2212;DHT22;48849;48.758;9.158;2024-01-07T00:29:50;9.80;99.90
2212;DHT22;48849;48.758;9.158;2024-01-07T00:32:17;9.90;99.90
2212;DHT22;48849;48.758;9.158;2024-01-07T00:34:44;11.10;99.90
2212;DHT22;48849;48.758;9.158;2024-01-07T00:37:11;9.90;99.90
2212;DHT22;48849;48.758;9.158;2024-01-07T00:39:39;9.80;99.90
2212;DHT22;48849;48.758;9.158;2024-01-07T00:42:07;9.80;99.90
2212;DHT22;48849;48.758;9.158;2024-01-07T00:44:34;9.80;99.90
2212;DHT22;48849;48.758;9.158;2024-01-07T00:47:01;9.80;99.90
2212;DHT22;48849;48.758;9.158;2024-01-07T00:49:28;11.10;99.90
2212;DHT22;48849;48.758;9.158;2024-01-07T00:51:56;9.80;99.90
2212;DHT22;48849;48.758;9.158;2024-01-07T00:54:22;9.90;99.90
2212;DHT22;48849;48.758;9.158;2024-01-07T00:56:50;10.30;99.90
2212;DHT22;48849;48.758;9.158;2024-01-07T00:59:16;9.90;99.90
2212;DHT22;48849;48.758;9.158;2024-01-07T01:01:43;9.90;99.90
2212;DHT22;48849;48.758;9.158;2024-01-07T01:04:10;10.30;99.90
2212;DHT22;48849;48.758;9.158;2024-01-07T01:06:37;9.90;99.90
2212;DHT22;48849;48.758;9.158;2024-01-07T01:09:04;11.30;99.90
2212;DHT22;48849;48.758;9.158;2024-01-07T01:11:31;10.30;99.90
2212;DHT22;48849;48.758;9.158;2024-01-07T01:13:59;9.80;99.90
2212;DHT22;48849;48.758;9.158;2024-01-07T01:16:26;11.10;99.90
2212;DHT22;48849;48.758;9.158;2024-01-07T01:18:52;9.80;99.90
2212;DHT22;48849;48.758;9.158;2024-01-07T01:21:19;9.80;99.90
2212;DHT22;48849;48.758;9.158;2024-01-07T01:23:47;9.80;99.90
2212;DHT22;48849;48.758;9.158;2024-01-07T01:26:13;9.80;99.90
2212;DHT22;48849;48.758;9.158;2024-01-07T01:28:40;9.80;99.90
2212;DHT22;48849;48.758;9.158;2024-01-07T01:31:08;10.50;99.90
2212;DHT22;48849;48.758;9.158;2024-01-07T01:33:38;9.80;99.90
2212;DHT22;48849;48.758;9.158;2024-01-07T01:36:06;9.80;99.90
2212;DHT22;48849;48.758;9.158;2024-01-07T01:38:33;9.80;99.90
2212;DHT22;48849;48.758;9.158;2024-01-07T01:40:59;10.20;99.90
2212;DHT22;48849;48.758;9.158;2024-01-07T01:43:28;9.70;99.90
2212;DHT22;48849;48.758;9.158;2024-01-07T01:45:55;9.80;99.90
2212;DHT22;48849;48.758;9.158;2024-01-07T01:48:24;9.80;99.90
2212;DHT22;48849;48.758;9.158;2024-01-07T01:50:52;9.80;99.90
2212;DHT22;48849;48.758;9.158;2024-01-07T01:53:20;11.20;99.90
2212;DHT22;48849;48.758;9.158;2024-01-07T01:55:47;9.80;99.90
2212;DHT22;48849;48.758;9.158;2024-01-07T01:58:15;9.80;99.90
2212;DHT22;48849;48.758;9.158;2024-01-07T02:00:44;9.80;99.90
2212;DHT22;48849;48.758;9.158;2024-01-07T02:03:11;9.80;99.90
2212;DHT22;48849;48.758;9.158;2024-01-07T02:05:39;9.80;99.90
2212;DHT22;48849;48.758;9.158;2024-01-07T02:08:06;10.00;99.90
2212;DHT22;48849;48.758;9.158;2024-01-07T02:10:33;10.10;99.90
2212;DHT22;48849;48.758;9.158;2024-01-07T02:13:02;10.50;99.90
2212;DHT22;48849;48.758;9.158;2024-01-07T02:15:29;9.80;99.90
2212;DHT22;48849;48.758;9.158;2024-01-07T02:17:56;11.30;99.90
2212;DHT22;48849;48.758;9.158;2024-01-07T02:20:23;9.80;99.90
2212;DHT22;48849;48.758;9.158;2024-01-07T02:22:51;9.80;99.90
2212;DHT22;48849;48.758;9.158;2024-01-07T02:25:20;10.20;99.90
2212;DHT22;48849;48.758;9.158;2024-01-07T02:27:47;9.70;99.90
2212;DHT22;48849;48.758;9.158;2024-01-07T02:30:14;10.70;99.90
2212;DHT22;48849;48.758;9.158;2024-01-07T02:32:40;10.30;99.90
2212;DHT22;48849;48.758;9.158;2024-01-07T02:35:07;10.60;99.90
2212;DHT22;48849;48.758;9.158;2024-01-07T02:37:34;9.70;99.90
2212;DHT22;48849;48.758;9.158;2024-01-07T02:40:01;9.80;99.90
2212;DHT22;48849;48.758;9.158;2024-01-07T02:42:29;9.70;99.90
2212;DHT22;48849;48.758;9.158;2024-01-07T02:44:56;9.80;99.90
2212;DHT22;48849;48.758;9.158;2024-01-07T02:47:22;9.70;99.90
2212;DHT22;48849;48.758;9.158;2024-01-07T02:49:49;10.10;99.90
2212;DHT22;48849;48.758;9.158;2024-01-07T02:52:16;9.70;99.90
2212;DHT22;48849;48.758;9.158;2024-01-07T02:54:43;9.70;99.90
2212;DHT22;48849;48.758;9.158;2024-01-07T02:57:10;9.80;99.90
2212;DHT22;48849;48.758;9.158;2024-01-07T02:59:38;9.70;99.90
2212;DHT22;48849;48.758;9.158;2024-01-07T03:02:04;9.70;99.90
2212;DHT22;48849;48.758;9.158;2024-01-07T03:04:31;9.70;99.90
2212;DHT22;48849;48.758;9.158;2024-01-07T03:06:58;9.80;99.90
2212;DHT22;48849;48.758;9.158;2024-01-07T03:09:25;9.70;99.90
2212;DHT22;48849;48.758;9.158;2024-01-07T03:11:52;10.50;99.90
2212;DHT22;48849;48.758;9.158;2024-01-07T03:14:19;10.30;99.90
2212;DHT22;48849;48.758;9.158;2024-01-07T03:16:48;9.80;99.90
2212;DHT22;48849;48.758;9.158;2024-01-07T03:19:15;9.70;99.90
2212;DHT22;48849;48.758;9.158;2024-01-07T03:21:42;10.00;99.90
2212;DHT22;48849;48.758;9.158;2024-01-07T03:24:09;10.20;99.90
2212;DHT22;48849;48.758;9.158;2024-01-07T03:26:35;11.00;99.90
2212;DHT22;48849;48.758;9.158;2024-01-07T03:29:02;9.70;99.90
2212;DHT22;48849;48.758;9.158;2024-01-07T03:31:29;9.80;99.90
2212;DHT22;48849;48.758;9.158;2024-01-07T03:33:57;9.70;99.90
2212;DHT22;48849;48.758;9.158;2024-01-07T03:36:24;10.50;99.90
2212;DHT22;48849;48.758;9.158;2024-01-07T03:38:51;9.80;99.90
2212;DHT22;48849;48.758;9.158;2024-01-07T03:41:18;9.70;99.90
2212;DHT22;48849;48.758;9.158;2024-01-07T03:43:46;9.70;99.90
2212;DHT22;48849;48.758;9.158;2024-01-07T03:46:13;9.70;99.90
2212;DHT22;48849;48.758;9.158;2024-01-07T03:48:40;10.30;99.90
2212;DHT22;48849;48.758;9.158;2024-01-07T03:51:08;9.70;99.90
2212;DHT22;48849;48.758;9.158;2024-01-07T03:53:35;9.70;99.90
2212;DHT22;48849;48.758;9.158;2024-01-07T03:56:02;9.70;99.90
2212;DHT22;48849;48.758;9.158;2024-01-07T03:58:28;9.70;99.90
2212;DHT22;48849;48.758;9.158;2024-01-07T04:00:55;9.70;99.90
2212;DHT22;48849;48.758;9.158;2024-01-07T04:03:22;9.70;99.90
2212;DHT22;48849;48.758;9.158;2024-01-07T04:05:49;10.40;99.90
2212;DHT22;48849;48.758;9.158;2024-01-07T04:08:17;9.70;99.90
2212;DHT22;48849;48.758;9.158;2024-01-07T04:10:44;9.70;99.90
2212;DHT22;48849;48.758;9.158;2024-01-07T04:13:11;9.70;99.90
2212;DHT22;48849;48.758;9.158;2024-01-07T04:15:38;9.70;99.90
2212;DHT22;48849;48.758;9.158;2024-01-07T04:18:06;10.20;99.90
2212;DHT22;48849;48.758;9.158;2024-01-07T04:20:33;9.90;99.90
2212;DHT22;48849;48.758;9.158;2024-01-07T04:23:00;9.70;99.90
2212;DHT22;48849;48.758;9.158;2024-01-07T04:25:28;9.70;99.90
2212;DHT22;48849;48.758;9.158;2024-01-07T04:27:55;9.70;99.90
2212;DHT22;48849;48.758;9.158;2024-01-07T04:30:22;10.90;99.90
2212;DHT22;48849;48.758;9.158;2024-01-07T04:32:48;10.50;99.90
2212;DHT22;48849;48.758;9.158;2024-01-07T04:35:15;9.70;99.90
2212;DHT22;48849;48.758;9.158;2024-01-07T04:37:42;9.70;99.90
2212;DHT22;48849;48.758;9.158;2024-01-07T04:40:10;9.70;99.90
2212;DHT22;48849;48.758;9.158;2024-01-07T04:42:38;9.70;99.90
2212;DHT22;48849;48.758;9.158;2024-01-07T04:45:06;9.70;99.90
2212;DHT22;48849;48.758;9.158;2024-01-07T04:47:33;9.70;99.90
2212;DHT22;48849;48.758;9.158;2024-01-07T04:50:00;9.70;99.90
2212;DHT22;48849;48.758;9.158;2024-01-07T04:52:27;9.60;99.90
2212;DHT22;48849;48.758;9.158;2024-01-07T04:54:54;9.70;99.90
2212;DHT22;48849;48.758;9.158;2024-01-07T04:57:22;9.70;99.90
2212;DHT22;48849;48.758;9.158;2024-01-07T04:59:50;9.60;99.90
2212;DHT22;48849;48.758;9.158;2024-01-07T05:02:17;9.60;99.90
2212;DHT22;48849;48.758;9.158;2024-01-07T05:04:44;10.40;99.90
2212;DHT22;48849;48.758;9.158;2024-01-07T05:07:10;9.70;99.90
2212;DHT22;48849;48.758;9.158;2024-01-07T05:09:37;9.60;99.90
2212;DHT22;48849;48.758;9.158;2024-01-07T05:12:05;9.60;99.90
2212;DHT22;48849;48.758;9.158;2024-01-07T05:14:31;9.60;99.90
2212;DHT22;48849;48.758;9.158;2024-01-07T05:16:59;9.60;99.90
2212;DHT22;48849;48.758;9.158;2024-01-07T05:19:26;10.50;99.90
2212;DHT22;48849;48.758;9.158;2024-01-07T05:21:53;10.20;99.90
2212;DHT22;48849;48.758;9.158;2024-01-07T05:24:20;9.60;99.90
2212;DHT22;48849;48.758;9.158;2024-01-07T05:26:46;9.60;99.90
2212;DHT22;48849;48.758;9.158;2024-01-07T05:29:13;10.70;99.90
2212;DHT22;48849;48.758;9.158;2024-01-07T05:31:40;9.60;99.90
2212;DHT22;48849;48.758;9.158;2024-01-07T05:34:08;9.60;99.90
2212;DHT22;48849;48.758;9.158;2024-01-07T05:36:35;9.60;99.90
2212;DHT22;48849;48.758;9.158;2024-01-07T05:39:03;9.60;99.90
2212;DHT22;48849;48.758;9.158;2024-01-07T05:41:29;9.60;99.90
2212;DHT22;48849;48.758;9.158;2024-01-07T05:43:56;9.60;99.90
2212;DHT22;48849;48.758;9.158;2024-01-07T05:46:23;10.30;99.90
2212;DHT22;48849;48.758;9.158;2024-01-07T05:48:50;9.60;99.90
2212;DHT22;48849;48.758;9.158;2024-01-07T05:51:18;9.60;99.90
2212;DHT22;48849;48.758;9.158;2024-01-07T05:53:45;9.60;99.90
2212;DHT22;48849;48.758;9.158;2024-01-07T05:56:12;9.60;99.90
2212;DHT22;48849;48.758;9.158;2024-01-07T05:58:39;9.60;99.90
2212;DHT22;48849;48.758;9.158;2024-01-07T06:01:07;10.30;99.90
2212;DHT22;48849;48.758;9.158;2024-01-07T06:03:34;9.60;99.90
2212;DHT22;48849;48.758;9.158;2024-01-07T06:06:01;9.50;99.90
2212;DHT22;48849;48.758;9.158;2024-01-07T06:08:29;9.70;99.90
2212;DHT22;48849;48.758;9.158;2024-01-07T06:10:56;10.30;99.90
2212;DHT22;48849;48.758;9.158;2024-01-07T06:13:23;9.60;99.90
2212;DHT22;48849;48.758;9.158;2024-01-07T06:15:50;9.50;99.90
2212;DHT22;48849;48.758;9.158;2024-01-07T06:18:17;9.50;99.90
2212;DHT22;48849;48.758;9.158;2024-01-07T06:20:43;10.90;99.90
2212;DHT22;48849;48.758;9.158;2024-01-07T06:23:10;9.50;99.90
2212;DHT22;48849;48.758;9.158;2024-01-07T06:25:38;9.50;99.90
2212;DHT22;48849;48.758;9.158;2024-01-07T06:28:06;9.50;99.90
2212;DHT22;48849;48.758;9.158;2024-01-07T06:30:33;9.50;99.90
2212;DHT22;48849;48.758;9.158;2024-01-07T06:33:00;9.50;99.90
2212;DHT22;48849;48.758;9.158;2024-01-07T06:35:27;9.50;99.90
2212;DHT22;48849;48.758;9.158;2024-01-07T06:37:54;9.50;99.90
2212;DHT22;48849;48.758;9.158;2024-01-07T06:40:20;10.50;99.90
2212;DHT22;48849;48.758;9.158;2024-01-07T06:42:49;9.60;99.90
2212;DHT22;48849;48.758;9.158;2024-01-07T06:45:17;9.50;99.90
2212;DHT22;48849;48.758;9.158;2024-01-07T06:47:44;9.50;99.90
2212;DHT22;48849;48.758;9.158;2024-01-07T06:50:11;9.50;99.90
2212;DHT22;48849;48.758;9.158;2024-01-07T06:52:38;9.50;99.90
2212;DHT22;48849;48.758;9.158;2024-01-07T06:55:06;9.50;99.90
2212;DHT22;48849;48.758;9.158;2024-01-07T06:57:33;9.50;99.90
2212;DHT22;48849;48.758;9.158;2024-01-07T07:00:01;9.50;99.90
2212;DHT22;48849;48.758;9.158;2024-01-07T07:02:28;9.50;99.90
2212;DHT22;48849;48.758;9.158;2024-01-07T07:04:54;9.50;99.90
2212;DHT22;48849;48.758;9.158;2024-01-07T07:07:21;9.50;99.90
2212;DHT22;48849;48.758;9.158;2024-01-07T07:09:48;9.50;99.90
2212;DHT22;48849;48.758;9.158;2024-01-07T07:12:14;9.50;99.90
2212;DHT22;48849;48.758;9.158;2024-01-07T07:14:41;10.40;99.90
2212;DHT22;48849;48.758;9.158;2024-01-07T07:17:09;9.50;99.90
2212;DHT22;48849;48.758;9.158;2024-01-07T07:19:36;9.50;99.90
2212;DHT22;48849;48.758;9.158;2024-01-07T07:22:03;9.90;99.90
2212;DHT22;48849;48.758;9.158;2024-01-07T07:24:31;10.70;99.90
2212;DHT22;48849;48.758;9.158;2024-01-07T07:26:57;10.80;99.90
2212;DHT22;48849;48.758;9.158;2024-01-07T07:29:24;9.50;99.90
2212;DHT22;48849;48.758;9.158;2024-01-07T07:31:51;9.50;99.90
2212;DHT22;48849;48.758;9.158;2024-01-07T07:34:19;10.30;99.90
2212;DHT22;48849;48.758;9.158;2024-01-07T07:36:46;10.70;99.90
2212;DHT22;48849;48.758;9.158;2024-01-07T07:39:12;9.40;99.90
2212;DHT22;48849;48.758;9.158;2024-01-07T07:41:40;10.10;99.90
2212;DHT22;48849;48.758;9.158;2024-01-07T07:44:07;9.40;99.90
2212;DHT22;48849;48.758;9.158;2024-01-07T07:46:34;9.70;99.90
2212;DHT22;48849;48.758;9.158;2024-01-07T07:49:00;9.40;99.90
2212;DHT22;48849;48.758;9.158;2024-01-07T07:51:29;9.40;99.90
2212;DHT22;48849;48.758;9.158;2024-01-07T07:53:55;9.40;99.90
2212;DHT22;48849;48.758;9.158;2024-01-07T07:56:22;9.30;99.90
2212;DHT22;48849;48.758;9.158;2024-01-07T07:58:49;9.80;99.90
2212;DHT22;48849;48.758;9.158;2024-01-07T08:01:17;9.70;99.90
2212;DHT22;48849;48.758;9.158;2024-01-07T08:03:44;9.30;99.90
2212;DHT22;48849;48.758;9.158;2024-01-07T08:06:10;9.90;99.90
2212;DHT22;48849;48.758;9.158;2024-01-07T08:08:38;9.30;99.90
2212;DHT22;48849;48.758;9.158;2024-01-07T08:11:05;9.30;99.90
2212;DHT22;48849;48.758;9.158;2024-01-07T08:13:35;9.30;99.90
2212;DHT22;48849;48.758;9.158;2024-01-07T08:16:02;9.30;99.90
2212;DHT22;48849;48.758;9.158;2024-01-07T08:18:28;9.20;99.90
2212;DHT22;48849;48.758;9.158;2024-01-07T08:20:55;10.70;99.90
2212;DHT22;48849;48.758;9.158;2024-01-07T08:23:23;10.40;99.90
2212;DHT22;48849;48.758;9.158;2024-01-07T08:25:51;9.30;99.90
2212;DHT22;48849;48.758;9.158;2024-01-07T08:28:18;9.30;99.90
2212;DHT22;48849;48.758;9.158;2024-01-07T08:30:46;9.30;99.90
2212;DHT22;48849;48.758;9.158;2024-01-07T08:33:13;9.20;99.90
2212;DHT22;48849;48.758;9.158;2024-01-07T08:35:40;9.20;99.90
2212;DHT22;48849;48.758;9.158;2024-01-07T08:38:07;9.20;99.90
2212;DHT22;48849;48.758;9.158;2024-01-07T08:40:34;9.70;99.90
2212;DHT22;48849;48.758;9.158;2024-01-07T08:43:03;10.10;99.90
2212;DHT22;48849;48.758;9.158;2024-01-07T08:45:30;9.10;99.90
2212;DHT22;48849;48.758;9.158;2024-01-07T08:47:57;9.60;99.90
2212;DHT22;48849;48.758;9.158;2024-01-07T08:50:24;9.10;99.90
2212;DHT22;48849;48.758;9.158;2024-01-07T08:52:51;9.10;99.90
2212;DHT22;48849;48.758;9.158;2024-01-07T08:55:17;9.10;99.90
2212;DHT22;48849;48.758;9.158;2024-01-07T08:57:44;9.60;99.90
2212;DHT22;48849;48.758;9.158;2024-01-07T09:00:16;9.10;99.90
2212;DHT22;48849;48.758;9.158;2024-01-07T09:02:43;9.10;99.90
2212;DHT22;48849;48.758;9.158;2024-01-07T09:05:10;10.30;99.90
2212;DHT22;48849;48.758;9.158;2024-01-07T09:07:43;9.00;99.90
2212;DHT22;48849;48.758;9.158;2024-01-07T09:10:10;9.10;99.90
2212;DHT22;48849;48.758;9.158;2024-01-07T09:12:38;9.00;99.90
2212;DHT22;48849;48.758;9.158;2024-01-07T09:15:06;9.00;99.90
2212;DHT22;48849;48.758;9.158;2024-01-07T09:17:36;9.00;99.90
2212;DHT22;48849;48.758;9.158;2024-01-07T09:20:03;9.90;99.90
2212;DHT22;48849;48.758;9.158;2024-01-07T09:22:32;9.00;99.90
2212;DHT22;48849;48.758;9.158;2024-01-07T09:25:00;9.00;99.90
2212;DHT22;48849;48.758;9.158;2024-01-07T09:27:28;9.00;99.90
2212;DHT22;48849;48.758;9.158;2024-01-07T09:29:54;9.00;99.90
2212;DHT22;48849;48.758;9.158;2024-01-07T09:32:21;9.00;99.90
2212;DHT22;48849;48.758;9.158;2024-01-07T09:34:49;9.40;99.90
2212;DHT22;48849;48.758;9.158;2024-01-07T09:37:16;9.00;99.90
2212;DHT22;48849;48.758;9.158;2024-01-07T09:39:43;9.00;99.90
2212;DHT22;48849;48.758;9.158;2024-01-07T09:42:13;9.80;99.90
2212;DHT22;48849;48.758;9.158;2024-01-07T09:44:40;9.00;99.90
2212;DHT22;48849;48.758;9.158;2024-01-07T09:47:10;9.00;99.90
2212;DHT22;48849;48.758;9.158;2024-01-07T09:49:37;9.00;99.90
2212;DHT22;48849;48.758;9.158;2024-01-07T09:52:06;9.00;99.90
2212;DHT22;48849;48.758;9.158;2024-01-07T09:54:35;9.00;99.90
2212;DHT22;48849;48.758;9.158;2024-01-07T09:57:03;9.00;99.90
2212;DHT22;48849;48.758;9.158;2024-01-07T09:59:32;8.90;99.90
2212;DHT22;48849;48.758;9.158;2024-01-07T10:01:59;9.00;99.90
2212;DHT22;48849;48.758;9.158;2024-01-07T10:04:26;9.00;99.90
2212;DHT22;48849;48.758;9.158;2024-01-07T10:06:54;8.90;99.90
2212;DHT22;48849;48.758;9.158;2024-01-07T10:09:23;8.90;99.90
2212;DHT22;48849;48.758;9.158;2024-01-07T10:11:51;8.90;99.90
2212;DHT22;48849;48.758;9.158;2024-01-07T10:14:18;8.90;99.90
2212;DHT22;48849;48.758;9.158;2024-01-07T10:16:47;9.00;99.90
2212;DHT22;48849;48.758;9.158;2024-01-07T10:19:19;9.80;99.90
2212;DHT22;48849;48.758;9.158;2024-01-07T10:21:46;9.80;99.90
2212;DHT22;48849;48.758;9.158;2024-01-07T10:24:13;9.00;99.90
2212;DHT22;48849;48.758;9.158;2024-01-07T10:26:41;8.90;99.90
2212;DHT22;48849;48.758;9.158;2024-01-07T10:29:08;9.50;99.90
2212;DHT22;48849;48.758;9.158;2024-01-07T10:31:36;8.90;99.90
2212;DHT22;48849;48.758;9.158;2024-01-07T10:34:07;8.90;99.90
2212;DHT22;48849;48.758;9.158;2024-01-07T10:36:33;8.90;99.90
2212;DHT22;48849;48.758;9.158;2024-01-07T10:39:00;8.90;99.90
2212;DHT22;48849;48.758;9.158;2024-01-07T10:41:27;8.90;99.90
2212;DHT22;48849;48.758;9.158;2024-01-07T10:43:57;8.90;99.90
2212;DHT22;48849;48.758;9.158;2024-01-07T10:46:26;9.50;99.90
2212;DHT22;48849;48.758;9.158;2024-01-07T10:48:59;8.80;99.90
2212;DHT22;48849;48.758;9.158;2024-01-07T10:51:28;8.80;99.90
2212;DHT22;48849;48.758;9.158;2024-01-07T10:53:56;8.80;99.90
2212;DHT22;48849;48.758;9.158;2024-01-07T10:56:24;8.80;99.90
2212;DHT22;48849;48.758;9.158;2024-01-07T10:58:52;8.80;99.90
2212;DHT22;48849;48.758;9.158;2024-01-07T11:01:20;8.80;99.90
2212;DHT22;48849;48.758;9.158;2024-01-07T11:03:56;8.80;99.90
2212;DHT22;48849;48.758;9.158;2024-01-07T11:06:28;8.80;99.90
2212;DHT22;48849;48.758;9.158;2024-01-07T11:09:01;8.80;99.90
2212;DHT22;48849;48.758;9.158;2024-01-07T11:11:35;10.00;99.90
2212;DHT22;48849;48.758;9.158;2024-01-07T11:14:03;9.60;99.90
2212;DHT22;48849;48.758;9.158;2024-01-07T11:16:43;8.80;99.90
2212;DHT22;48849;48.758;9.158;2024-01-07T11:19:13;9.40;99.90
2212;DHT22;48849;48.758;9.158;2024-01-07T11:21:40;8.80;99.90
2212;DHT22;48849;48.758;9.158;2024-01-07T11:24:07;10.00;99.90
2212;DHT22;48849;48.758;9.158;2024-01-07T11:26:34;8.80;99.90
2212;DHT22;48849;48.758;9.158;2024-01-07T11:29:01;8.70;99.90
2212;DHT22;48849;48.758;9.158;2024-01-07T11:31:45;8.70;99.90
2212;DHT22;48849;48.758;9.158;2024-01-07T11:34:40;9.40;99.90
2212;DHT22;48849;48.758;9.158;2024-01-07T11:37:10;8.70;99.90
2212;DHT22;48849;48.758;9.158;2024-01-07T11:39:38;8.70;99.90
2212;DHT22;48849;48.758;9.158;2024-01-07T11:42:05;8.70;99.90
2212;DHT22;48849;48.758;9.158;2024-01-07T11:44:34;9.30;99.90
2212;DHT22;48849;48.758;9.158;2024-01-07T11:47:02;8.70;99.90
2212;DHT22;48849;48.758;9.158;2024-01-07T11:49:29;8.70;99.90
2212;DHT22;48849;48.758;9.158;2024-01-07T11:51:56;8.70;99.90
2212;DHT22;48849;48.758;9.158;2024-01-07T11:54:23;9.70;99.90
2212;DHT22;48849;48.758;9.158;2024-01-07T11:56:50;8.70;99.90
2212;DHT22;48849;48.758;9.158;2024-01-07T11:59:17;8.70;99.90
2212;DHT22;48849;48.758;9.158;2024-01-07T12:01:43;9.20;99.90
2212;DHT22;48849;48.758;9.158;2024-01-07T12:04:12;8.80;99.90
2212;DHT22;48849;48.758;9.158;2024-01-07T12:06:39;9.00;99.90
2212;DHT22;48849;48.758;9.158;2024-01-07T12:09:05;8.70;99.90
2212;DHT22;48849;48.758;9.158;2024-01-07T12:11:32;8.70;99.90
2212;DHT22;48849;48.758;9.158;2024-01-07T12:13:59;8.70;99.90
2212;DHT22;48849;48.758;9.158;2024-01-07T12:16:26;8.70;99.90
2212;DHT22;48849;48.758;9.158;2024-01-07T12:18:53;9.30;99.90
2212;DHT22;48849;48.758;9.158;2024-01-07T12:21:22;8.70;99.90
2212;DHT22;48849;48.758;9.158;2024-01-07T12:23:49;8.70;99.90
2212;DHT22;48849;48.758;9.158;2024-01-07T12:26:17;8.70;99.90
2212;DHT22;48849;48.758;9.158;2024-01-07T12:28:51;8.60;99.90
2212;DHT22;48849;48.758;9.158;2024-01-07T12:31:18;8.60;99.90
2212;DHT22;48849;48.758;9.158;2024-01-07T12:33:46;8.60;99.90
2212;DHT22;48849;48.758;9.158;2024-01-07T12:36:13;8.60;99.90
2212;DHT22;48849;48.758;9.158;2024-01-07T12:38:41;8.60;99.90
2212;DHT22;48849;48.758;9.158;2024-01-07T12:41:09;8.60;99.90
2212;DHT22;48849;48.758;9.158;2024-01-07T12:43:36;8.60;99.90
2212;DHT22;48849;48.758;9.158;2024-01-07T12:46:03;8.60;99.90
2212;DHT22;48849;48.758;9.158;2024-01-07T12:48:31;8.50;99.90
2212;DHT22;48849;48.758;9.158;2024-01-07T12:50:57;8.50;99.90
2212;DHT22;48849;48.758;9.158;2024-01-07T12:53:24;8.50;99.90
2212;DHT22;48849;48.758;9.158;2024-01-07T12:55:52;8.70;99.90
2212;DHT22;48849;48.758;9.158;2024-01-07T12:58:19;8.60;99.90
2212;DHT22;48849;48.758;9.158;2024-01-07T13:00:46;8.50;99.90
2212;DHT22;48849;48.758;9.158;2024-01-07T13:03:14;8.60;99.90
2212;DHT22;48849;48.758;9.158;2024-01-07T13:05:43;8.60;99.90
2212;DHT22;48849;48.758;9.158;2024-01-07T13:08:11;8.50;99.90
2212;DHT22;48849;48.758;9.158;2024-01-07T13:10:38;8.40;99.90
2212;DHT22;48849;48.758;9.158;2024-01-07T13:13:06;8.50;99.90
2212;DHT22;48849;48.758;9.158;2024-01-07T13:15:35;8.40;99.90
2212;DHT22;48849;48.758;9.158;2024-01-07T13:18:02;8.40;99.90
2212;DHT22;48849;48.758;9.158;2024-01-07T13:20:29;8.40;99.90
2212;DHT22;48849;48.758;9.158;2024-01-07T13:22:56;8.40;99.90
2212;DHT22;48849;48.758;9.158;2024-01-07T13:25:22;8.40;99.90
2212;DHT22;48849;48.758;9.158;2024-01-07T13:27:49;8.70;99.90
2212;DHT22;48849;48.758;9.158;2024-01-07T13:30:18;9.30;99.90
2212;DHT22;48849;48.758;9.158;2024-01-07T13:32:44;8.50;99.90
2212;DHT22;48849;48.758;9.158;2024-01-07T13:35:11;8.40;99.90
2212;DHT22;48849;48.758;9.158;2024-01-07T13:37:38;8.40;99.90
2212;DHT22;48849;48.758;9.158;2024-01-07T13:40:08;8.40;99.90
2212;DHT22;48849;48.758;9.158;2024-01-07T13:42:35;8.40;99.90
2212;DHT22;48849;48.758;9.158;2024-01-07T13:45:03;8.40;99.90
2212;DHT22;48849;48.758;9.158;2024-01-07T13:47:31;8.30;99.90
2212;DHT22;48849;48.758;9.158;2024-01-07T13:49:58;8.30;99.90
2212;DHT22;48849;48.758;9.158;2024-01-07T13:52:24;8.30;99.90
2212;DHT22;48849;48.758;9.158;2024-01-07T13:54:51;8.30;99.90
2212;DHT22;48849;48.758;9.158;2024-01-07T13:57:17;8.30;99.90
2212;DHT22;48849;48.758;9.158;2024-01-07T13:59:44;8.30;99.90
2212;DHT22;48849;48.758;9.158;2024-01-07T14:02:11;8.20;99.90
2212;DHT22;48849;48.758;9.158;2024-01-07T14:04:39;8.20;99.90
2212;DHT22;48849;48.758;9.158;2024-01-07T14:07:06;8.20;99.90
2212;DHT22;48849;48.758;9.158;2024-01-07T14:09:33;8.10;99.90
2212;DHT22;48849;48.758;9.158;2024-01-07T14:11:59;8.10;99.90
2212;DHT22;48849;48.758;9.158;2024-01-07T14:14:28;8.10;99.90
2212;DHT22;48849;48.758;9.158;2024-01-07T14:16:54;8.10;99.90
2212;DHT22;48849;48.758;9.158;2024-01-07T14:19:21;8.10;99.90
2212;DHT22;48849;48.758;9.158;2024-01-07T14:21:49;8.00;99.90
2212;DHT22;48849;48.758;9.158;2024-01-07T14:24:17;8.10;99.90
2212;DHT22;48849;48.758;9.158;2024-01-07T14:26:44;8.10;99.90
2212;DHT22;48849;48.758;9.158;2024-01-07T14:29:11;8.10;99.90
2212;DHT22;48849;48.758;9.158;2024-01-07T14:31:38;8.00;99.90
2212;DHT22;48849;48.758;9.158;2024-01-07T14:34:05;8.00;99.90
2212;DHT22;48849;48.758;9.158;2024-01-07T14:36:32;8.10;99.90
2212;DHT22;48849;48.758;9.158;2024-01-07T14:39:00;8.00;99.90
2212;DHT22;48849;48.758;9.158;2024-01-07T14:41:26;8.00;99.90
2212;DHT22;48849;48.758;9.158;2024-01-07T14:43:53;8.00;99.90
2212;DHT22;48849;48.758;9.158;2024-01-07T14:46:20;8.00;99.90
2212;DHT22;48849;48.758;9.158;2024-01-07T14:48:47;7.90;99.90
2212;DHT22;48849;48.758;9.158;2024-01-07T14:51:14;7.90;99.90
2212;DHT22;48849;48.758;9.158;2024-01-07T14:53:40;7.90;99.90
2212;DHT22;48849;48.758;9.158;2024-01-07T14:56:08;7.90;99.90
2212;DHT22;48849;48.758;9.158;2024-01-07T14:58:35;7.90;99.90
2212;DHT22;48849;48.758;9.158;2024-01-07T15:01:02;8.60;99.90
2212;DHT22;48849;48.758;9.158;2024-01-07T15:03:29;7.70;99.90
2212;DHT22;48849;48.758;9.158;2024-01-07T15:05:56;7.70;99.90
2212;DHT22;48849;48.758;9.158;2024-01-07T15:08:24;8.20;99.90
2212;DHT22;48849;48.758;9.158;2024-01-07T15:10:51;7.60;99.90
2212;DHT22;48849;48.758;9.158;2024-01-07T15:13:19;7.60;99.90
2212;DHT22;48849;48.758;9.158;2024-01-07T15:15:47;7.90;99.90
2212;DHT22;48849;48.758;9.158;2024-01-07T15:18:14;7.50;99.90
2212;DHT22;48849;48.758;9.158;2024-01-07T15:20:41;7.50;99.90
2212;DHT22;48849;48.758;9.158;2024-01-07T15:23:07;7.50;99.90
2212;DHT22;48849;48.758;9.158;2024-01-07T15:25:34;7.40;99.90
2212;DHT22;48849;48.758;9.158;2024-01-07T15:28:01;7.40;99.90
2212;DHT22;48849;48.758;9.158;2024-01-07T15:30:29;7.50;99.90
2212;DHT22;48849;48.758;9.158;2024-01-07T15:32:56;7.50;99.90
2212;DHT22;48849;48.758;9.158;2024-01-07T15:35:22;7.40;99.90
2212;DHT22;48849;48.758;9.158;2024-01-07T15:37:49;7.50;99.90
2212;DHT22;48849;48.758;9.158;2024-01-07T15:40:16;7.50;99.90
2212;DHT22;48849;48.758;9.158;2024-01-07T15:42:43;7.50;99.90
2212;DHT22;48849;48.758;9.158;2024-01-07T15:45:09;7.50;99.90
2212;DHT22;48849;48.758;9.158;2024-01-07T15:47:37;7.50;99.90
2212;DHT22;48849;48.758;9.158;2024-01-07T15:50:05;7.50;99.90
2212;DHT22;48849;48.758;9.158;2024-01-07T15:52:32;7.40;99.90
2212;DHT22;48849;48.758;9.158;2024-01-07T15:54:58;7.40;99.90
2212;DHT22;48849;48.758;9.158;2024-01-07T15:57:25;7.40;99.90
2212;DHT22;48849;48.758;9.158;2024-01-07T15:59:52;7.40;99.90